Cfl Racer — PJMV — position and weather

sailwx.info

Track history (hours):
 
Tides and Currents Weather Stations Pressure Air Temp Water Temp Dewpoint Dewpoint Depression Visibility Wind Speed Wind Dir Waves Ship Positions

Cfl Racer

Last reported at 2014-Dec-20 21:33 UTC. Time now 2014-Dec-20 23:03 UTC.
Position N 51°41' E 003°19'.

Length 83 m; draft 4.7 m.

Type: Cargo ship. MMSI: 306762000.

Date/timePositionNaut miles runAvg speedWind from/ knotsBaromVisibWave heightAir tempDewpointWater temp
2014-Dec-20 21:33N 51°41' E 003°19'7 6.7
2014-Dec-20 20:33N 51°36' E 003°13'8 7.2
2014-Dec-20 19:28N 51°28' E 003°08'8 7.1
2014-Dec-20 18:17N 51°22' E 002°60'8 9.9
2014-Dec-20 17:32N 51°23' E 003°12'1111.0
2014-Dec-20 16:33N 51°25' E 003°29'9 8.8
2014-Dec-20 15:33N 51°25' E 003°43'7 6.8
2014-Dec-20 14:33N 51°19' E 003°49'7 7.3
2014-Dec-20 13:33N 51°12' E 003°48'7 7.4
2014-Dec-20 12:34N 51°05' E 003°44'0 0.0
2014-Dec-20 11:33N 51°05' E 003°44'0 0.0
2014-Dec-20 10:32N 51°05' E 003°44'0 0.0
2014-Dec-20 09:26N 51°05' E 003°44'0 0.0
2014-Dec-20 08:26N 51°05' E 003°44'0 0.0
2014-Dec-20 07:32N 51°05' E 003°44'0 0.0
2014-Dec-20 06:29N 51°05' E 003°44'0 0.0
2014-Dec-20 05:32N 51°05' E 003°44'0 0.0
2014-Dec-20 04:32N 51°05' E 003°44'0 0.0
2014-Dec-20 03:32N 51°05' E 003°44'0 0.0
2014-Dec-20 02:33N 51°05' E 003°44'0 0.0
2014-Dec-20 01:31N 51°05' E 003°44'0 0.0
2014-Dec-20 00:31N 51°05' E 003°44'0 0.0
2014-Dec-19 23:31N 51°05' E 003°44'0 0.0
2014-Dec-19 22:30N 51°05' E 003°44'0 0.0
2014-Dec-19 21:30N 51°05' E 003°44'0 0.1
2014-Dec-19 20:33N 51°05' E 003°44'0 0.0
2014-Dec-19 19:30N 51°05' E 003°44'0 0.0
2014-Dec-19 18:33N 51°05' E 003°44'0 0.4
2014-Dec-19 17:33N 51°05' E 003°44'0 0.0
2014-Dec-19 16:27N 51°05' E 003°44'0 0.0
2014-Dec-19 15:33N 51°05' E 003°44'0 0.0
2014-Dec-19 14:33N 51°05' E 003°44'0 0.0
2014-Dec-19 13:30N 51°05' E 003°44'0 0.0
2014-Dec-19 12:33N 51°05' E 003°44'0 0.0
2014-Dec-19 11:33N 51°05' E 003°44'0 0.0
2014-Dec-19 10:32N 51°05' E 003°44'0 0.0
2014-Dec-19 09:33N 51°05' E 003°44'0 0.0
2014-Dec-19 08:33N 51°05' E 003°44'0 0.0
2014-Dec-19 07:33N 51°05' E 003°44'7 7.1
2014-Dec-19 06:33N 51°12' E 003°48'7 6.7
2014-Dec-19 05:34N 51°18' E 003°50'2 1.6
2014-Dec-19 04:33N 51°20' E 003°49'2 2.0
2014-Dec-19 03:34N 51°21' E 003°47'7 7.2
2014-Dec-19 02:34N 51°25' E 003°58'5 5.3
2014-Dec-19 01:33N 51°22' E 004°05'5 5.2
2014-Dec-19 00:33N 51°22' E 004°13'3 2.7
2014-Dec-18 23:33N 51°21' E 004°17'1 0.5
2014-Dec-18 22:33N 51°20' E 004°18'4 3.6
2014-Dec-18 21:28N 51°17' E 004°21'0 0.0
2014-Dec-18 20:31N 51°17' E 004°21'0 0.0
2014-Dec-18 19:31N 51°17' E 004°21'0 0.0
2014-Dec-18 18:28N 51°17' E 004°21'0 0.0
2014-Dec-18 17:31N 51°17' E 004°21'0 0.0
2014-Dec-18 16:31N 51°17' E 004°21'0 0.0
2014-Dec-18 15:28N 51°17' E 004°21'0 0.0
2014-Dec-18 14:31N 51°17' E 004°21'0 0.0
2014-Dec-18 13:31N 51°17' E 004°21'0 0.0
2014-Dec-18 12:31N 51°17' E 004°21'0 0.0
2014-Dec-18 11:31N 51°17' E 004°21'0 0.0
2014-Dec-18 10:25N 51°17' E 004°21'0 0.0
2014-Dec-18 09:31N 51°17' E 004°21'0 0.0
2014-Dec-18 08:34N 51°17' E 004°21'0 0.0
2014-Dec-18 07:34N 51°17' E 004°21'0 0.0
2014-Dec-18 06:31N 51°17' E 004°21'0 0.0
2014-Dec-18 05:28N 51°17' E 004°21'0 0.0
2014-Dec-18 04:34N 51°17' E 004°21'0 0.0
2014-Dec-18 03:34N 51°17' E 004°21'0 0.0
2014-Dec-18 02:31N 51°17' E 004°21'1 0.6
2014-Dec-18 01:34N 51°17' E 004°20'2 2.5
2014-Dec-18 00:34N 51°18' E 004°17'7 6.6
2014-Dec-17 23:33N 51°23' E 004°09'7 7.5
2014-Dec-17 22:33N 51°25' E 003°58'9 9.2
2014-Dec-17 21:33N 51°22' E 003°44'1010.0
2014-Dec-17 20:33N 51°28' E 003°31'1110.6
2014-Dec-17 19:33N 51°37' E 003°22'1010.0
2014-Dec-17 18:32N 51°45' E 003°12'6310.6
2014-Dec-17 12:33N 52°31' E 002°01'10 9.5
2014-Dec-17 11:33N 52°39' E 001°51'9 9.1
2014-Dec-17 10:34N 52°46' E 001°42'9 8.9
2014-Dec-17 09:33N 52°53' E 001°32'9 8.8
2014-Dec-17 08:34N 52°58' E 001°21'45 9.1
2014-Dec-17 03:33N 53°34' E 000°33'9 9.4
2014-Dec-17 02:33N 53°42' E 000°27'10 9.6
2014-Dec-17 01:33N 53°50' E 000°18'10 9.8
2014-Dec-17 00:33N 53°59' E 000°10'1010.1
2014-Dec-16 23:33N 54°07' E 000°01'1010.3
2014-Dec-16 22:33N 54°15' W 000°10'1010.2
2014-Dec-16 21:33N 54°23' W 000°21'1010.0
2014-Dec-16 20:33N 54°31' W 000°32'1010.0
2014-Dec-16 19:33N 54°35' W 000°48'1010.3
2014-Dec-16 18:33N 54°40' W 001°04'7 6.2
2014-Dec-16 17:21N 54°35' W 001°14'0 0.0
2014-Dec-16 14:13N 54°35' W 001°14'0 0.0
2014-Dec-16 13:28N 54°35' W 001°14'0 0.0
2014-Dec-16 12:13N 54°35' W 001°14'0 0.0
2014-Dec-16 11:16N 54°35' W 001°14'0 0.0
2014-Dec-16 10:22N 54°35' W 001°14'0 0.0
2014-Dec-16 09:19N 54°35' W 001°14'0 0.0
2014-Dec-15 14:25N 54°35' W 001°14'0 0.0
2014-Dec-15 12:25N 54°35' W 001°14'0 0.0
2014-Dec-15 11:28N 54°35' W 001°14'0 0.0
2014-Dec-15 10:25N 54°35' W 001°14'0 0.0
2014-Dec-15 09:28N 54°35' W 001°14'1 0.3
2014-Dec-15 06:21N 54°35' W 001°13'1 0.1
2014-Dec-14 11:04N 54°36' W 001°11'5 9.4
2014-Dec-14 10:33N 54°40' W 001°06'10 9.7
2014-Dec-14 09:30N 54°37' W 000°49'1310.8
2014-Dec-14 08:20N 54°31' W 000°30'911.2
2014-Dec-14 07:33N 54°24' W 000°21'1111.4
2014-Dec-14 06:33N 54°15' W 000°10'1111.4
2014-Dec-14 05:33N 54°06' E 000°02'1211.6
2014-Dec-14 04:33N 53°56' E 000°14'1211.7
2014-Dec-14 03:33N 53°47' E 000°27'54 1.2
2014-Dec-12 07:33N 53°01' E 001°12'1010.1
2014-Dec-12 06:33N 52°57' E 001°27'1212.1
2014-Dec-12 05:33N 52°48' E 001°41'1313.1
2014-Dec-12 04:33N 52°37' E 001°53'1312.7
2014-Dec-12 03:33N 52°24' E 001°52'1111.1
2014-Dec-12 02:33N 52°13' E 001°51'10 9.9
2014-Dec-12 01:33N 52°03' E 001°51'9 8.9
2014-Dec-12 00:33N 51°54' E 001°50'8 8.5
2014-Dec-11 23:33N 51°46' E 001°49'9 8.7
2014-Dec-11 22:33N 51°37' E 001°48'10 9.6
2014-Dec-11 21:34N 51°30' E 001°37'4 3.6
2014-Dec-11 20:34N 51°27' E 001°34'9 9.1
2014-Dec-11 19:33N 51°27' E 001°48'9 8.9
2014-Dec-11 18:33N 51°24' E 002°02'8 8.2
2014-Dec-11 17:33N 51°21' E 002°14'7 6.8
2014-Dec-11 16:33N 51°22' E 002°25'7 6.8
2014-Dec-11 15:33N 51°23' E 002°36'7 7.0
2014-Dec-11 14:31N 51°22' E 002°47'7 6.8
2014-Dec-11 13:33N 51°22' E 002°58'15 7.6
2014-Dec-11 11:32N 51°24' E 003°22'9 8.9
2014-Dec-11 10:33N 51°26' E 003°36'9 8.5
2014-Dec-11 09:33N 51°21' E 003°47'4 3.6
2014-Dec-11 08:33N 51°18' E 003°50'8 7.6
2014-Dec-11 07:33N 51°11' E 003°48'0 0.0
2014-Dec-11 06:33N 51°11' E 003°48'0 0.0
2014-Dec-11 05:34N 51°11' E 003°48'0 0.0
2014-Dec-11 04:33N 51°11' E 003°48'0 0.0
2014-Dec-11 03:33N 51°11' E 003°48'0 0.0
2014-Dec-11 02:34N 51°11' E 003°48'0 0.0
2014-Dec-11 01:33N 51°11' E 003°48'0 0.0
2014-Dec-11 00:34N 51°11' E 003°48'0 0.0
2014-Dec-10 23:34N 51°11' E 003°48'0 0.0
2014-Dec-10 22:33N 51°11' E 003°48'  
Track history (hours):
 
Tides and Currents Weather Stations Pressure Air Temp Water Temp Dewpoint Dewpoint Depression Visibility Wind Speed Wind Dir Waves Ship Positions

Cfl Racer

Last reported at 2014-Dec-20 21:33 UTC. Time now 2014-Dec-20 23:03 UTC.
Position N 51°41' E 003°19'.

Length 83 m; draft 4.7 m.

Type: Cargo ship. MMSI: 306762000.

Date/timePositionNaut miles runAvg speedWind from/ knotsBaromVisibWave heightAir tempDewpointWater temp
2014-Dec-20 21:33N 51°41' E 003°19'7 6.7
2014-Dec-20 20:33N 51°36' E 003°13'8 7.2
2014-Dec-20 19:28N 51°28' E 003°08'8 7.1
2014-Dec-20 18:17N 51°22' E 002°60'8 9.9
2014-Dec-20 17:32N 51°23' E 003°12'1111.0
2014-Dec-20 16:33N 51°25' E 003°29'9 8.8
2014-Dec-20 15:33N 51°25' E 003°43'7 6.8
2014-Dec-20 14:33N 51°19' E 003°49'7 7.3
2014-Dec-20 13:33N 51°12' E 003°48'7 7.4
2014-Dec-20 12:34N 51°05' E 003°44'0 0.0
2014-Dec-20 11:33N 51°05' E 003°44'0 0.0
2014-Dec-20 10:32N 51°05' E 003°44'0 0.0
2014-Dec-20 09:26N 51°05' E 003°44'0 0.0
2014-Dec-20 08:26N 51°05' E 003°44'0 0.0
2014-Dec-20 07:32N 51°05' E 003°44'0 0.0
2014-Dec-20 06:29N 51°05' E 003°44'0 0.0
2014-Dec-20 05:32N 51°05' E 003°44'0 0.0
2014-Dec-20 04:32N 51°05' E 003°44'0 0.0
2014-Dec-20 03:32N 51°05' E 003°44'0 0.0
2014-Dec-20 02:33N 51°05' E 003°44'0 0.0
2014-Dec-20 01:31N 51°05' E 003°44'0 0.0
2014-Dec-20 00:31N 51°05' E 003°44'0 0.0
2014-Dec-19 23:31N 51°05' E 003°44'0 0.0
2014-Dec-19 22:30N 51°05' E 003°44'0 0.0
2014-Dec-19 21:30N 51°05' E 003°44'0 0.1
2014-Dec-19 20:33N 51°05' E 003°44'0 0.0
2014-Dec-19 19:30N 51°05' E 003°44'0 0.0
2014-Dec-19 18:33N 51°05' E 003°44'0 0.4
2014-Dec-19 17:33N 51°05' E 003°44'0 0.0
2014-Dec-19 16:27N 51°05' E 003°44'0 0.0
2014-Dec-19 15:33N 51°05' E 003°44'0 0.0
2014-Dec-19 14:33N 51°05' E 003°44'0 0.0
2014-Dec-19 13:30N 51°05' E 003°44'0 0.0
2014-Dec-19 12:33N 51°05' E 003°44'0 0.0
2014-Dec-19 11:33N 51°05' E 003°44'0 0.0
2014-Dec-19 10:32N 51°05' E 003°44'0 0.0
2014-Dec-19 09:33N 51°05' E 003°44'0 0.0
2014-Dec-19 08:33N 51°05' E 003°44'0 0.0
2014-Dec-19 07:33N 51°05' E 003°44'7 7.1
2014-Dec-19 06:33N 51°12' E 003°48'7 6.7
2014-Dec-19 05:34N 51°18' E 003°50'2 1.6
2014-Dec-19 04:33N 51°20' E 003°49'2 2.0
2014-Dec-19 03:34N 51°21' E 003°47'7 7.2
2014-Dec-19 02:34N 51°25' E 003°58'5 5.3
2014-Dec-19 01:33N 51°22' E 004°05'5 5.2
2014-Dec-19 00:33N 51°22' E 004°13'3 2.7
2014-Dec-18 23:33N 51°21' E 004°17'1 0.5
2014-Dec-18 22:33N 51°20' E 004°18'4 3.6
2014-Dec-18 21:28N 51°17' E 004°21'0 0.0
2014-Dec-18 20:31N 51°17' E 004°21'0 0.0
2014-Dec-18 19:31N 51°17' E 004°21'0 0.0
2014-Dec-18 18:28N 51°17' E 004°21'0 0.0
2014-Dec-18 17:31N 51°17' E 004°21'0 0.0
2014-Dec-18 16:31N 51°17' E 004°21'0 0.0
2014-Dec-18 15:28N 51°17' E 004°21'0 0.0
2014-Dec-18 14:31N 51°17' E 004°21'0 0.0
2014-Dec-18 13:31N 51°17' E 004°21'0 0.0
2014-Dec-18 12:31N 51°17' E 004°21'0 0.0
2014-Dec-18 11:31N 51°17' E 004°21'0 0.0
2014-Dec-18 10:25N 51°17' E 004°21'0 0.0
2014-Dec-18 09:31N 51°17' E 004°21'0 0.0
2014-Dec-18 08:34N 51°17' E 004°21'0 0.0
2014-Dec-18 07:34N 51°17' E 004°21'0 0.0
2014-Dec-18 06:31N 51°17' E 004°21'0 0.0
2014-Dec-18 05:28N 51°17' E 004°21'0 0.0
2014-Dec-18 04:34N 51°17' E 004°21'0 0.0
2014-Dec-18 03:34N 51°17' E 004°21'0 0.0
2014-Dec-18 02:31N 51°17' E 004°21'1 0.6
2014-Dec-18 01:34N 51°17' E 004°20'2 2.5
2014-Dec-18 00:34N 51°18' E 004°17'7 6.6
2014-Dec-17 23:33N 51°23' E 004°09'7 7.5
2014-Dec-17 22:33N 51°25' E 003°58'9 9.2
2014-Dec-17 21:33N 51°22' E 003°44'1010.0
2014-Dec-17 20:33N 51°28' E 003°31'1110.6
2014-Dec-17 19:33N 51°37' E 003°22'1010.0
2014-Dec-17 18:32N 51°45' E 003°12'6310.6
2014-Dec-17 12:33N 52°31' E 002°01'10 9.5
2014-Dec-17 11:33N 52°39' E 001°51'9 9.1
2014-Dec-17 10:34N 52°46' E 001°42'9 8.9
2014-Dec-17 09:33N 52°53' E 001°32'9 8.8
2014-Dec-17 08:34N 52°58' E 001°21'45 9.1
2014-Dec-17 03:33N 53°34' E 000°33'9 9.4
2014-Dec-17 02:33N 53°42' E 000°27'10 9.6
2014-Dec-17 01:33N 53°50' E 000°18'10 9.8
2014-Dec-17 00:33N 53°59' E 000°10'1010.1
2014-Dec-16 23:33N 54°07' E 000°01'1010.3
2014-Dec-16 22:33N 54°15' W 000°10'1010.2
2014-Dec-16 21:33N 54°23' W 000°21'1010.0
2014-Dec-16 20:33N 54°31' W 000°32'1010.0
2014-Dec-16 19:33N 54°35' W 000°48'1010.3
2014-Dec-16 18:33N 54°40' W 001°04'7 6.2
2014-Dec-16 17:21N 54°35' W 001°14'0 0.0
2014-Dec-16 14:13N 54°35' W 001°14'0 0.0
2014-Dec-16 13:28N 54°35' W 001°14'0 0.0
2014-Dec-16 12:13N 54°35' W 001°14'0 0.0
2014-Dec-16 11:16N 54°35' W 001°14'0 0.0
2014-Dec-16 10:22N 54°35' W 001°14'0 0.0
2014-Dec-16 09:19N 54°35' W 001°14'0 0.0
2014-Dec-15 14:25N 54°35' W 001°14'0 0.0
2014-Dec-15 12:25N 54°35' W 001°14'0 0.0
2014-Dec-15 11:28N 54°35' W 001°14'0 0.0
2014-Dec-15 10:25N 54°35' W 001°14'0 0.0
2014-Dec-15 09:28N 54°35' W 001°14'1 0.3
2014-Dec-15 06:21N 54°35' W 001°13'1 0.1
2014-Dec-14 11:04N 54°36' W 001°11'5 9.4
2014-Dec-14 10:33N 54°40' W 001°06'10 9.7
2014-Dec-14 09:30N 54°37' W 000°49'1310.8
2014-Dec-14 08:20N 54°31' W 000°30'911.2
2014-Dec-14 07:33N 54°24' W 000°21'1111.4
2014-Dec-14 06:33N 54°15' W 000°10'1111.4
2014-Dec-14 05:33N 54°06' E 000°02'1211.6
2014-Dec-14 04:33N 53°56' E 000°14'1211.7
2014-Dec-14 03:33N 53°47' E 000°27'54 1.2
2014-Dec-12 07:33N 53°01' E 001°12'1010.1
2014-Dec-12 06:33N 52°57' E 001°27'1212.1
2014-Dec-12 05:33N 52°48' E 001°41'1313.1
2014-Dec-12 04:33N 52°37' E 001°53'1312.7
2014-Dec-12 03:33N 52°24' E 001°52'1111.1
2014-Dec-12 02:33N 52°13' E 001°51'10 9.9
2014-Dec-12 01:33N 52°03' E 001°51'9 8.9
2014-Dec-12 00:33N 51°54' E 001°50'8 8.5
2014-Dec-11 23:33N 51°46' E 001°49'9 8.7
2014-Dec-11 22:33N 51°37' E 001°48'10 9.6
2014-Dec-11 21:34N 51°30' E 001°37'4 3.6
2014-Dec-11 20:34N 51°27' E 001°34'9 9.1
2014-Dec-11 19:33N 51°27' E 001°48'9 8.9
2014-Dec-11 18:33N 51°24' E 002°02'8 8.2
2014-Dec-11 17:33N 51°21' E 002°14'7 6.8
2014-Dec-11 16:33N 51°22' E 002°25'7 6.8
2014-Dec-11 15:33N 51°23' E 002°36'7 7.0
2014-Dec-11 14:31N 51°22' E 002°47'7 6.8
2014-Dec-11 13:33N 51°22' E 002°58'15 7.6
2014-Dec-11 11:32N 51°24' E 003°22'9 8.9
2014-Dec-11 10:33N 51°26' E 003°36'9 8.5
2014-Dec-11 09:33N 51°21' E 003°47'4 3.6
2014-Dec-11 08:33N 51°18' E 003°50'8 7.6
2014-Dec-11 07:33N 51°11' E 003°48'0 0.0
2014-Dec-11 06:33N 51°11' E 003°48'0 0.0
2014-Dec-11 05:34N 51°11' E 003°48'0 0.0
2014-Dec-11 04:33N 51°11' E 003°48'0 0.0
2014-Dec-11 03:33N 51°11' E 003°48'0 0.0
2014-Dec-11 02:34N 51°11' E 003°48'0 0.0
2014-Dec-11 01:33N 51°11' E 003°48'0 0.0
2014-Dec-11 00:34N 51°11' E 003°48'0 0.0
2014-Dec-10 23:34N 51°11' E 003°48'0 0.0
2014-Dec-10 22:33N 51°11' E 003°48'  

Dump ship's entire track history